sensor_id;sensor_type;location;lat;lon;timestamp;temperature;humidity
73360;DHT22;63092;43.582;19.528;2022-09-20T00:00:39;10.90;88.30
73360;DHT22;63092;43.582;19.528;2022-09-20T00:03:06;11.00;88.20
73360;DHT22;63092;43.582;19.528;2022-09-20T00:05:39;11.00;88.10
73360;DHT22;63092;43.582;19.528;2022-09-20T00:08:07;11.00;89.00
73360;DHT22;63092;43.582;19.528;2022-09-20T00:10:34;10.90;90.00
73360;DHT22;63092;43.582;19.528;2022-09-20T00:13:02;11.00;89.40
73360;DHT22;63092;43.582;19.528;2022-09-20T00:15:29;11.00;88.80
73360;DHT22;63092;43.582;19.528;2022-09-20T00:17:55;10.90;88.40
73360;DHT22;63092;43.582;19.528;2022-09-20T00:20:21;11.00;88.60
73360;DHT22;63092;43.582;19.528;2022-09-20T00:22:47;10.90;88.40
73360;DHT22;63092;43.582;19.528;2022-09-20T00:25:18;10.90;87.50
73360;DHT22;63092;43.582;19.528;2022-09-20T00:27:44;10.90;88.20
73360;DHT22;63092;43.582;19.528;2022-09-20T00:30:12;10.90;88.60
73360;DHT22;63092;43.582;19.528;2022-09-20T00:32:38;11.00;87.60
73360;DHT22;63092;43.582;19.528;2022-09-20T00:35:04;10.90;87.30
73360;DHT22;63092;43.582;19.528;2022-09-20T00:37:36;11.00;87.40
73360;DHT22;63092;43.582;19.528;2022-09-20T00:40:03;11.00;88.10
73360;DHT22;63092;43.582;19.528;2022-09-20T00:42:30;10.90;88.30
73360;DHT22;63092;43.582;19.528;2022-09-20T00:44:58;11.00;88.00
73360;DHT22;63092;43.582;19.528;2022-09-20T00:48:14;11.00;88.70
73360;DHT22;63092;43.582;19.528;2022-09-20T00:50:39;11.00;88.70
73360;DHT22;63092;43.582;19.528;2022-09-20T00:55:56;11.10;87.50
73360;DHT22;63092;43.582;19.528;2022-09-20T00:58:26;11.10;88.50
73360;DHT22;63092;43.582;19.528;2022-09-20T01:00:55;11.20;88.00
73360;DHT22;63092;43.582;19.528;2022-09-20T01:03:24;11.10;87.80
73360;DHT22;63092;43.582;19.528;2022-09-20T01:05:52;11.00;89.70
73360;DHT22;63092;43.582;19.528;2022-09-20T01:08:18;10.70;90.20
73360;DHT22;63092;43.582;19.528;2022-09-20T01:10:44;10.80;89.80
73360;DHT22;63092;43.582;19.528;2022-09-20T01:13:10;10.90;88.40
73360;DHT22;63092;43.582;19.528;2022-09-20T01:15:37;10.90;88.70
73360;DHT22;63092;43.582;19.528;2022-09-20T01:18:06;10.80;89.80
73360;DHT22;63092;43.582;19.528;2022-09-20T01:20:36;10.90;89.10
73360;DHT22;63092;43.582;19.528;2022-09-20T01:31:36;11.00;89.00
73360;DHT22;63092;43.582;19.528;2022-09-20T01:34:13;11.00;88.10
73360;DHT22;63092;43.582;19.528;2022-09-20T01:39:38;11.10;88.70
73360;DHT22;63092;43.582;19.528;2022-09-20T01:42:09;10.90;88.70
73360;DHT22;63092;43.582;19.528;2022-09-20T01:47:31;11.00;87.40
73360;DHT22;63092;43.582;19.528;2022-09-20T02:28:51;10.80;88.50
73360;DHT22;63092;43.582;19.528;2022-09-20T02:39:35;10.90;87.80
73360;DHT22;63092;43.582;19.528;2022-09-20T02:42:37;11.00;87.40
73360;DHT22;63092;43.582;19.528;2022-09-20T02:45:34;11.00;87.20
73360;DHT22;63092;43.582;19.528;2022-09-20T02:48:04;10.90;87.50
73360;DHT22;63092;43.582;19.528;2022-09-20T02:50:53;10.90;87.30
73360;DHT22;63092;43.582;19.528;2022-09-20T02:53:50;11.00;87.20
73360;DHT22;63092;43.582;19.528;2022-09-20T02:56:44;11.00;86.90
73360;DHT22;63092;43.582;19.528;2022-09-20T03:02:04;11.00;86.90
73360;DHT22;63092;43.582;19.528;2022-09-20T03:07:22;10.90;87.60
73360;DHT22;63092;43.582;19.528;2022-09-20T03:15:22;10.70;87.50
73360;DHT22;63092;43.582;19.528;2022-09-20T03:18:10;10.60;85.80
73360;DHT22;63092;43.582;19.528;2022-09-20T03:27:07;10.50;86.40
73360;DHT22;63092;43.582;19.528;2022-09-20T03:35:06;10.50;87.80
73360;DHT22;63092;43.582;19.528;2022-09-20T03:38:04;10.50;87.60
73360;DHT22;63092;43.582;19.528;2022-09-20T03:43:53;10.60;87.30
73360;DHT22;63092;43.582;19.528;2022-09-20T03:49:31;10.60;86.30
73360;DHT22;63092;43.582;19.528;2022-09-20T04:00:15;10.20;87.40
73360;DHT22;63092;43.582;19.528;2022-09-20T04:06:08;10.30;87.50
73360;DHT22;63092;43.582;19.528;2022-09-20T04:11:51;10.30;86.70
73360;DHT22;63092;43.582;19.528;2022-09-20T04:14:32;10.30;86.80
73360;DHT22;63092;43.582;19.528;2022-09-20T04:19:44;10.30;87.80
73360;DHT22;63092;43.582;19.528;2022-09-20T04:22:11;10.40;87.30
73360;DHT22;63092;43.582;19.528;2022-09-20T04:24:51;10.30;86.50
73360;DHT22;63092;43.582;19.528;2022-09-20T04:27:34;10.20;86.20
73360;DHT22;63092;43.582;19.528;2022-09-20T04:30:24;10.20;86.10
73360;DHT22;63092;43.582;19.528;2022-09-20T04:33:10;10.10;85.90
73360;DHT22;63092;43.582;19.528;2022-09-20T04:38:58;9.90;86.60
73360;DHT22;63092;43.582;19.528;2022-09-20T04:47:49;9.90;86.80
73360;DHT22;63092;43.582;19.528;2022-09-20T04:55:59;10.20;86.50
73360;DHT22;63092;43.582;19.528;2022-09-20T05:05:03;10.20;84.80
73360;DHT22;63092;43.582;19.528;2022-09-20T05:15:59;10.00;85.40
73360;DHT22;63092;43.582;19.528;2022-09-20T05:21:49;10.10;86.00
73360;DHT22;63092;43.582;19.528;2022-09-20T05:27:18;10.00;85.40
73360;DHT22;63092;43.582;19.528;2022-09-20T05:30:03;10.00;85.60
73360;DHT22;63092;43.582;19.528;2022-09-20T05:33:32;10.00;85.40
73360;DHT22;63092;43.582;19.528;2022-09-20T05:39:20;10.10;86.00
73360;DHT22;63092;43.582;19.528;2022-09-20T05:41:44;10.20;86.30
73360;DHT22;63092;43.582;19.528;2022-09-20T05:44:29;10.20;85.00
73360;DHT22;63092;43.582;19.528;2022-09-20T05:56:04;10.30;83.70
73360;DHT22;63092;43.582;19.528;2022-09-20T06:01:10;10.30;84.70
73360;DHT22;63092;43.582;19.528;2022-09-20T06:03:49;10.20;83.60
73360;DHT22;63092;43.582;19.528;2022-09-20T06:12:46;10.30;84.20
73360;DHT22;63092;43.582;19.528;2022-09-20T06:23:15;10.50;82.60
73360;DHT22;63092;43.582;19.528;2022-09-20T06:26:01;10.50;83.80
73360;DHT22;63092;43.582;19.528;2022-09-20T06:28:42;10.60;83.90
73360;DHT22;63092;43.582;19.528;2022-09-20T06:31:10;10.60;83.30
73360;DHT22;63092;43.582;19.528;2022-09-20T06:33:54;10.60;83.90
73360;DHT22;63092;43.582;19.528;2022-09-20T06:36:22;10.60;82.70
73360;DHT22;63092;43.582;19.528;2022-09-20T06:41:55;10.70;80.80
73360;DHT22;63092;43.582;19.528;2022-09-20T06:44:22;10.70;80.10
73360;DHT22;63092;43.582;19.528;2022-09-20T06:46:48;10.70;80.50
73360;DHT22;63092;43.582;19.528;2022-09-20T06:49:14;10.80;79.90
73360;DHT22;63092;43.582;19.528;2022-09-20T06:51:39;10.70;79.10
73360;DHT22;63092;43.582;19.528;2022-09-20T06:54:14;10.60;78.30
73360;DHT22;63092;43.582;19.528;2022-09-20T06:56:43;10.60;79.20
73360;DHT22;63092;43.582;19.528;2022-09-20T06:59:09;10.70;79.20
73360;DHT22;63092;43.582;19.528;2022-09-20T07:01:36;10.70;78.60
73360;DHT22;63092;43.582;19.528;2022-09-20T07:04:03;10.80;78.00
73360;DHT22;63092;43.582;19.528;2022-09-20T07:06:29;10.70;77.70
73360;DHT22;63092;43.582;19.528;2022-09-20T07:08:55;10.80;78.30
73360;DHT22;63092;43.582;19.528;2022-09-20T07:11:21;10.80;78.60
73360;DHT22;63092;43.582;19.528;2022-09-20T07:13:52;10.80;77.20
73360;DHT22;63092;43.582;19.528;2022-09-20T07:16:19;11.00;78.20
73360;DHT22;63092;43.582;19.528;2022-09-20T07:18:45;10.90;76.50
73360;DHT22;63092;43.582;19.528;2022-09-20T07:21:13;11.10;76.80
73360;DHT22;63092;43.582;19.528;2022-09-20T07:23:39;11.10;77.10
73360;DHT22;63092;43.582;19.528;2022-09-20T07:26:06;11.20;75.80
73360;DHT22;63092;43.582;19.528;2022-09-20T07:28:33;11.20;75.30
73360;DHT22;63092;43.582;19.528;2022-09-20T07:31:00;11.20;75.80
73360;DHT22;63092;43.582;19.528;2022-09-20T07:33:26;11.20;76.00
73360;DHT22;63092;43.582;19.528;2022-09-20T07:35:52;11.20;75.20
73360;DHT22;63092;43.582;19.528;2022-09-20T07:38:22;11.30;75.00
73360;DHT22;63092;43.582;19.528;2022-09-20T07:40:59;11.40;75.10
73360;DHT22;63092;43.582;19.528;2022-09-20T07:43:27;11.30;76.10
73360;DHT22;63092;43.582;19.528;2022-09-20T07:45:55;11.40;76.70
73360;DHT22;63092;43.582;19.528;2022-09-20T07:48:32;11.40;75.60
73360;DHT22;63092;43.582;19.528;2022-09-20T07:51:03;11.40;76.30
73360;DHT22;63092;43.582;19.528;2022-09-20T07:53:29;11.50;75.70
73360;DHT22;63092;43.582;19.528;2022-09-20T07:58:30;11.70;74.80
73360;DHT22;63092;43.582;19.528;2022-09-20T08:01:01;11.70;74.20
73360;DHT22;63092;43.582;19.528;2022-09-20T08:03:31;11.80;72.40
73360;DHT22;63092;43.582;19.528;2022-09-20T08:06:05;11.90;73.70
73360;DHT22;63092;43.582;19.528;2022-09-20T08:08:33;12.00;73.10
73360;DHT22;63092;43.582;19.528;2022-09-20T08:11:05;12.00;72.20
73360;DHT22;63092;43.582;19.528;2022-09-20T08:13:42;11.90;72.80
73360;DHT22;63092;43.582;19.528;2022-09-20T08:16:09;11.90;72.80
73360;DHT22;63092;43.582;19.528;2022-09-20T08:18:36;12.00;72.10
73360;DHT22;63092;43.582;19.528;2022-09-20T08:21:07;11.80;73.20
73360;DHT22;63092;43.582;19.528;2022-09-20T08:23:34;11.70;72.40
73360;DHT22;63092;43.582;19.528;2022-09-20T08:26:01;11.90;72.20
73360;DHT22;63092;43.582;19.528;2022-09-20T08:28:28;11.80;71.80
73360;DHT22;63092;43.582;19.528;2022-09-20T08:31:03;12.00;72.10
73360;DHT22;63092;43.582;19.528;2022-09-20T08:33:29;12.10;71.30
73360;DHT22;63092;43.582;19.528;2022-09-20T08:35:55;11.90;71.60
73360;DHT22;63092;43.582;19.528;2022-09-20T08:38:21;11.80;72.50
73360;DHT22;63092;43.582;19.528;2022-09-20T08:40:56;11.80;71.80
73360;DHT22;63092;43.582;19.528;2022-09-20T08:43:27;12.00;71.70
73360;DHT22;63092;43.582;19.528;2022-09-20T08:45:54;12.00;72.00
73360;DHT22;63092;43.582;19.528;2022-09-20T08:48:23;12.10;72.50
73360;DHT22;63092;43.582;19.528;2022-09-20T08:50:52;12.00;72.60
73360;DHT22;63092;43.582;19.528;2022-09-20T08:53:18;12.20;72.90
73360;DHT22;63092;43.582;19.528;2022-09-20T08:55:47;12.40;71.80
73360;DHT22;63092;43.582;19.528;2022-09-20T08:58:13;12.40;70.20
73360;DHT22;63092;43.582;19.528;2022-09-20T09:00:39;12.50;69.80
73360;DHT22;63092;43.582;19.528;2022-09-20T09:03:13;12.50;71.10
73360;DHT22;63092;43.582;19.528;2022-09-20T09:05:52;12.30;70.10
73360;DHT22;63092;43.582;19.528;2022-09-20T09:08:32;12.50;70.10
73360;DHT22;63092;43.582;19.528;2022-09-20T09:11:07;12.30;69.90
73360;DHT22;63092;43.582;19.528;2022-09-20T09:13:56;12.30;70.10
73360;DHT22;63092;43.582;19.528;2022-09-20T09:16:27;12.40;70.70
73360;DHT22;63092;43.582;19.528;2022-09-20T09:18:53;12.50;71.20
73360;DHT22;63092;43.582;19.528;2022-09-20T09:21:27;12.80;70.80
73360;DHT22;63092;43.582;19.528;2022-09-20T09:24:01;13.00;68.60
73360;DHT22;63092;43.582;19.528;2022-09-20T09:26:35;13.00;68.20
73360;DHT22;63092;43.582;19.528;2022-09-20T09:29:22;13.00;68.40
73360;DHT22;63092;43.582;19.528;2022-09-20T09:31:51;13.00;68.70
73360;DHT22;63092;43.582;19.528;2022-09-20T09:34:28;13.10;68.90
73360;DHT22;63092;43.582;19.528;2022-09-20T09:36:55;12.80;69.60
73360;DHT22;63092;43.582;19.528;2022-09-20T09:41:52;12.70;71.10
73360;DHT22;63092;43.582;19.528;2022-09-20T09:44:25;12.60;71.20
73360;DHT22;63092;43.582;19.528;2022-09-20T09:46:53;12.70;70.60
73360;DHT22;63092;43.582;19.528;2022-09-20T09:49:27;12.70;70.60
73360;DHT22;63092;43.582;19.528;2022-09-20T09:54:34;12.80;69.10
73360;DHT22;63092;43.582;19.528;2022-09-20T10:05:23;13.60;68.70
73360;DHT22;63092;43.582;19.528;2022-09-20T10:11:42;14.00;69.40
73360;DHT22;63092;43.582;19.528;2022-09-20T10:17:37;14.50;66.20
73360;DHT22;63092;43.582;19.528;2022-09-20T10:26:19;14.50;66.60
73360;DHT22;63092;43.582;19.528;2022-09-20T10:37:00;14.50;65.90
73360;DHT22;63092;43.582;19.528;2022-09-20T10:39:39;14.00;67.20
73360;DHT22;63092;43.582;19.528;2022-09-20T10:45:17;14.00;66.70
73360;DHT22;63092;43.582;19.528;2022-09-20T10:47:55;14.20;66.60
73360;DHT22;63092;43.582;19.528;2022-09-20T10:50:52;14.50;67.10
73360;DHT22;63092;43.582;19.528;2022-09-20T10:56:29;14.50;64.90
73360;DHT22;63092;43.582;19.528;2022-09-20T11:07:22;14.60;64.50
73360;DHT22;63092;43.582;19.528;2022-09-20T11:10:03;14.60;65.10
73360;DHT22;63092;43.582;19.528;2022-09-20T11:15:22;14.90;63.90
73360;DHT22;63092;43.582;19.528;2022-09-20T11:20:31;15.10;64.00
73360;DHT22;63092;43.582;19.528;2022-09-20T11:23:02;15.30;63.60
73360;DHT22;63092;43.582;19.528;2022-09-20T11:25:41;15.50;63.50
73360;DHT22;63092;43.582;19.528;2022-09-20T11:28:44;15.30;63.90
73360;DHT22;63092;43.582;19.528;2022-09-20T11:31:17;15.40;63.90
73360;DHT22;63092;43.582;19.528;2022-09-20T11:33:54;15.20;65.00
73360;DHT22;63092;43.582;19.528;2022-09-20T11:36:34;14.90;64.80
73360;DHT22;63092;43.582;19.528;2022-09-20T11:39:20;14.90;65.40
73360;DHT22;63092;43.582;19.528;2022-09-20T11:41:48;15.30;65.00
73360;DHT22;63092;43.582;19.528;2022-09-20T11:44:18;15.20;64.00
73360;DHT22;63092;43.582;19.528;2022-09-20T11:47:08;15.30;64.00
73360;DHT22;63092;43.582;19.528;2022-09-20T11:57:40;15.80;60.70
73360;DHT22;63092;43.582;19.528;2022-09-20T12:00:06;15.90;59.50
73360;DHT22;63092;43.582;19.528;2022-09-20T12:02:39;16.00;60.20
73360;DHT22;63092;43.582;19.528;2022-09-20T12:05:43;16.10;58.60
73360;DHT22;63092;43.582;19.528;2022-09-20T12:08:24;16.30;59.50
73360;DHT22;63092;43.582;19.528;2022-09-20T12:11:25;16.20;56.00
73360;DHT22;63092;43.582;19.528;2022-09-20T12:13:57;16.40;55.40
73360;DHT22;63092;43.582;19.528;2022-09-20T12:16:40;16.40;53.80
73360;DHT22;63092;43.582;19.528;2022-09-20T12:24:26;16.60;55.60
73360;DHT22;63092;43.582;19.528;2022-09-20T12:26:58;16.70;55.60
73360;DHT22;63092;43.582;19.528;2022-09-20T12:31:56;16.70;55.00
73360;DHT22;63092;43.582;19.528;2022-09-20T12:39:39;16.80;53.50
73360;DHT22;63092;43.582;19.528;2022-09-20T12:47:21;16.90;51.50
73360;DHT22;63092;43.582;19.528;2022-09-20T12:49:48;17.10;51.50
73360;DHT22;63092;43.582;19.528;2022-09-20T13:11:55;17.30;48.50
73360;DHT22;63092;43.582;19.528;2022-09-20T13:14:30;17.40;49.90
73360;DHT22;63092;43.582;19.528;2022-09-20T13:17:20;17.30;49.90
73360;DHT22;63092;43.582;19.528;2022-09-20T13:19:48;17.10;50.70
73360;DHT22;63092;43.582;19.528;2022-09-20T13:22:24;16.90;51.20
73360;DHT22;63092;43.582;19.528;2022-09-20T13:24:55;16.70;52.90
73360;DHT22;63092;43.582;19.528;2022-09-20T13:27:24;16.70;54.40
73360;DHT22;63092;43.582;19.528;2022-09-20T13:29:52;16.70;54.40
73360;DHT22;63092;43.582;19.528;2022-09-20T13:32:24;16.70;55.50
73360;DHT22;63092;43.582;19.528;2022-09-20T13:35:06;16.70;55.00
73360;DHT22;63092;43.582;19.528;2022-09-20T13:37:39;16.70;53.60
73360;DHT22;63092;43.582;19.528;2022-09-20T13:43:26;16.70;54.10
73360;DHT22;63092;43.582;19.528;2022-09-20T13:46:04;16.70;55.00
73360;DHT22;63092;43.582;19.528;2022-09-20T13:48:31;16.50;55.70
73360;DHT22;63092;43.582;19.528;2022-09-20T13:50:57;16.50;56.50
73360;DHT22;63092;43.582;19.528;2022-09-20T13:53:26;16.30;58.20
73360;DHT22;63092;43.582;19.528;2022-09-20T13:55:52;16.30;57.90
73360;DHT22;63092;43.582;19.528;2022-09-20T13:58:25;16.30;58.80
73360;DHT22;63092;43.582;19.528;2022-09-20T14:01:01;16.10;58.80
73360;DHT22;63092;43.582;19.528;2022-09-20T14:03:28;16.10;59.30
73360;DHT22;63092;43.582;19.528;2022-09-20T14:06:00;16.10;59.00
73360;DHT22;63092;43.582;19.528;2022-09-20T14:08:36;16.00;60.70
73360;DHT22;63092;43.582;19.528;2022-09-20T14:11:25;16.00;60.30
73360;DHT22;63092;43.582;19.528;2022-09-20T14:13:54;16.10;60.70
73360;DHT22;63092;43.582;19.528;2022-09-20T14:16:26;16.00;63.30
73360;DHT22;63092;43.582;19.528;2022-09-20T14:18:54;16.00;61.60
73360;DHT22;63092;43.582;19.528;2022-09-20T14:21:22;16.00;61.80
73360;DHT22;63092;43.582;19.528;2022-09-20T14:23:57;16.10;60.30
73360;DHT22;63092;43.582;19.528;2022-09-20T14:26:30;16.20;62.20
73360;DHT22;63092;43.582;19.528;2022-09-20T14:34:59;16.20;62.40
73360;DHT22;63092;43.582;19.528;2022-09-20T14:40:45;16.20;60.50
73360;DHT22;63092;43.582;19.528;2022-09-20T14:43:29;16.30;60.70
73360;DHT22;63092;43.582;19.528;2022-09-20T14:46:01;16.30;59.30
73360;DHT22;63092;43.582;19.528;2022-09-20T14:48:38;16.40;58.80
73360;DHT22;63092;43.582;19.528;2022-09-20T14:56:39;16.70;56.90
73360;DHT22;63092;43.582;19.528;2022-09-20T15:01:40;16.80;55.60
73360;DHT22;63092;43.582;19.528;2022-09-20T15:04:20;16.90;55.20
73360;DHT22;63092;43.582;19.528;2022-09-20T15:06:49;16.90;55.30
73360;DHT22;63092;43.582;19.528;2022-09-20T15:09:17;16.70;55.60
73360;DHT22;63092;43.582;19.528;2022-09-20T15:11:43;16.60;59.60
73360;DHT22;63092;43.582;19.528;2022-09-20T15:14:09;16.50;60.40
73360;DHT22;63092;43.582;19.528;2022-09-20T15:16:34;16.30;58.30
73360;DHT22;63092;43.582;19.528;2022-09-20T15:19:00;16.30;60.30
73360;DHT22;63092;43.582;19.528;2022-09-20T15:21:26;16.30;61.70
73360;DHT22;63092;43.582;19.528;2022-09-20T15:23:52;16.20;62.50
73360;DHT22;63092;43.582;19.528;2022-09-20T15:26:21;16.10;62.50
73360;DHT22;63092;43.582;19.528;2022-09-20T15:28:47;16.10;61.00
73360;DHT22;63092;43.582;19.528;2022-09-20T15:31:13;16.00;60.80
73360;DHT22;63092;43.582;19.528;2022-09-20T15:33:40;16.10;62.20
73360;DHT22;63092;43.582;19.528;2022-09-20T15:36:06;16.00;64.40
73360;DHT22;63092;43.582;19.528;2022-09-20T15:38:32;16.00;64.90
73360;DHT22;63092;43.582;19.528;2022-09-20T15:41:00;15.90;63.70
73360;DHT22;63092;43.582;19.528;2022-09-20T15:43:29;15.90;64.50
73360;DHT22;63092;43.582;19.528;2022-09-20T15:46:16;15.90;65.10
73360;DHT22;63092;43.582;19.528;2022-09-20T15:48:42;15.80;64.70
73360;DHT22;63092;43.582;19.528;2022-09-20T15:51:09;15.70;65.00
73360;DHT22;63092;43.582;19.528;2022-09-20T15:53:44;15.70;65.70
73360;DHT22;63092;43.582;19.528;2022-09-20T15:56:21;15.60;66.80
73360;DHT22;63092;43.582;19.528;2022-09-20T15:58:52;15.50;68.40
73360;DHT22;63092;43.582;19.528;2022-09-20T16:01:25;15.50;69.20
73360;DHT22;63092;43.582;19.528;2022-09-20T16:03:51;15.40;69.30
73360;DHT22;63092;43.582;19.528;2022-09-20T16:06:18;15.40;69.10
73360;DHT22;63092;43.582;19.528;2022-09-20T16:08:44;15.30;68.10
73360;DHT22;63092;43.582;19.528;2022-09-20T16:11:13;15.10;67.30
73360;DHT22;63092;43.582;19.528;2022-09-20T16:13:39;15.10;65.60
73360;DHT22;63092;43.582;19.528;2022-09-20T16:16:06;15.00;67.90
73360;DHT22;63092;43.582;19.528;2022-09-20T16:18:35;15.00;71.90
73360;DHT22;63092;43.582;19.528;2022-09-20T16:21:19;14.90;71.60
73360;DHT22;63092;43.582;19.528;2022-09-20T16:23:53;14.80;71.20
73360;DHT22;63092;43.582;19.528;2022-09-20T16:26:20;14.70;70.40
73360;DHT22;63092;43.582;19.528;2022-09-20T16:28:47;14.70;70.30
73360;DHT22;63092;43.582;19.528;2022-09-20T16:31:34;14.50;71.50
73360;DHT22;63092;43.582;19.528;2022-09-20T16:34:26;14.50;71.90
73360;DHT22;63092;43.582;19.528;2022-09-20T16:36:58;14.50;71.80
73360;DHT22;63092;43.582;19.528;2022-09-20T16:39:24;14.40;71.00
73360;DHT22;63092;43.582;19.528;2022-09-20T16:41:53;14.40;70.70
73360;DHT22;63092;43.582;19.528;2022-09-20T16:44:19;14.40;72.30
73360;DHT22;63092;43.582;19.528;2022-09-20T16:46:44;14.30;72.90
73360;DHT22;63092;43.582;19.528;2022-09-20T16:49:10;14.30;72.20
73360;DHT22;63092;43.582;19.528;2022-09-20T16:51:42;14.20;71.70
73360;DHT22;63092;43.582;19.528;2022-09-20T16:54:10;14.20;72.00
73360;DHT22;63092;43.582;19.528;2022-09-20T16:56:41;14.20;71.90
73360;DHT22;63092;43.582;19.528;2022-09-20T16:59:08;14.10;72.00
73360;DHT22;63092;43.582;19.528;2022-09-20T17:01:36;14.00;71.20
73360;DHT22;63092;43.582;19.528;2022-09-20T17:04:03;13.80;71.50
73360;DHT22;63092;43.582;19.528;2022-09-20T17:06:34;13.80;71.60
73360;DHT22;63092;43.582;19.528;2022-09-20T17:09:00;13.80;71.50
73360;DHT22;63092;43.582;19.528;2022-09-20T17:11:28;13.80;71.70
73360;DHT22;63092;43.582;19.528;2022-09-20T17:13:54;13.70;72.10
73360;DHT22;63092;43.582;19.528;2022-09-20T17:16:24;13.70;73.90
73360;DHT22;63092;43.582;19.528;2022-09-20T17:19:10;13.60;74.70
73360;DHT22;63092;43.582;19.528;2022-09-20T17:21:38;13.50;74.20
73360;DHT22;63092;43.582;19.528;2022-09-20T17:24:05;13.50;74.20
73360;DHT22;63092;43.582;19.528;2022-09-20T17:26:39;13.50;73.90
73360;DHT22;63092;43.582;19.528;2022-09-20T17:29:10;13.50;75.10
73360;DHT22;63092;43.582;19.528;2022-09-20T17:31:39;13.40;75.70
73360;DHT22;63092;43.582;19.528;2022-09-20T17:34:07;13.30;75.70
73360;DHT22;63092;43.582;19.528;2022-09-20T17:36:42;13.30;75.20
73360;DHT22;63092;43.582;19.528;2022-09-20T17:39:10;13.20;74.70
73360;DHT22;63092;43.582;19.528;2022-09-20T17:41:41;13.20;75.70
73360;DHT22;63092;43.582;19.528;2022-09-20T17:44:07;13.20;76.20
73360;DHT22;63092;43.582;19.528;2022-09-20T17:46:36;13.00;75.90
73360;DHT22;63092;43.582;19.528;2022-09-20T17:49:05;13.10;75.00
73360;DHT22;63092;43.582;19.528;2022-09-20T17:54:01;12.90;74.30
73360;DHT22;63092;43.582;19.528;2022-09-20T17:56:27;12.90;74.30
73360;DHT22;63092;43.582;19.528;2022-09-20T18:00:52;12.90;75.00
73360;DHT22;63092;43.582;19.528;2022-09-20T18:03:21;12.80;75.70
73360;DHT22;63092;43.582;19.528;2022-09-20T18:05:48;12.70;75.80
73360;DHT22;63092;43.582;19.528;2022-09-20T18:08:15;12.70;75.80
73360;DHT22;63092;43.582;19.528;2022-09-20T18:10:41;12.60;76.00
73360;DHT22;63092;43.582;19.528;2022-09-20T18:13:07;12.60;76.80
73360;DHT22;63092;43.582;19.528;2022-09-20T18:15:32;12.60;77.70
73360;DHT22;63092;43.582;19.528;2022-09-20T18:17:58;12.60;78.10
73360;DHT22;63092;43.582;19.528;2022-09-20T18:20:24;12.60;77.90
73360;DHT22;63092;43.582;19.528;2022-09-20T18:22:51;12.50;77.20
73360;DHT22;63092;43.582;19.528;2022-09-20T18:25:17;12.50;76.20
73360;DHT22;63092;43.582;19.528;2022-09-20T18:27:42;12.50;75.50
73360;DHT22;63092;43.582;19.528;2022-09-20T18:30:09;12.30;75.60
73360;DHT22;63092;43.582;19.528;2022-09-20T18:32:34;12.40;76.20
73360;DHT22;63092;43.582;19.528;2022-09-20T18:35:00;12.40;75.90
73360;DHT22;63092;43.582;19.528;2022-09-20T18:37:27;12.30;76.10
73360;DHT22;63092;43.582;19.528;2022-09-20T18:39:52;12.20;76.70
73360;DHT22;63092;43.582;19.528;2022-09-20T18:42:18;12.30;76.70
73360;DHT22;63092;43.582;19.528;2022-09-20T18:44:44;12.20;76.90
73360;DHT22;63092;43.582;19.528;2022-09-20T18:47:10;12.20;77.50
73360;DHT22;63092;43.582;19.528;2022-09-20T18:49:36;12.20;77.50
73360;DHT22;63092;43.582;19.528;2022-09-20T18:52:02;12.00;77.50
73360;DHT22;63092;43.582;19.528;2022-09-20T18:54:28;11.90;77.90
73360;DHT22;63092;43.582;19.528;2022-09-20T18:56:58;11.80;78.00
73360;DHT22;63092;43.582;19.528;2022-09-20T18:59:25;11.80;78.10
73360;DHT22;63092;43.582;19.528;2022-09-20T19:05:24;11.90;78.70
73360;DHT22;63092;43.582;19.528;2022-09-20T19:07:52;11.80;79.20
73360;DHT22;63092;43.582;19.528;2022-09-20T19:16:08;11.90;77.90
73360;DHT22;63092;43.582;19.528;2022-09-20T19:19:01;11.70;77.90
73360;DHT22;63092;43.582;19.528;2022-09-20T19:22:22;11.70;78.10
73360;DHT22;63092;43.582;19.528;2022-09-20T19:27:15;11.70;78.00
73360;DHT22;63092;43.582;19.528;2022-09-20T19:29:41;11.70;77.80
73360;DHT22;63092;43.582;19.528;2022-09-20T19:32:17;11.70;78.10
73360;DHT22;63092;43.582;19.528;2022-09-20T19:34:49;11.60;79.00
73360;DHT22;63092;43.582;19.528;2022-09-20T19:37:35;11.70;78.20
73360;DHT22;63092;43.582;19.528;2022-09-20T19:40:23;11.60;78.30
73360;DHT22;63092;43.582;19.528;2022-09-20T19:48:36;11.50;79.00
73360;DHT22;63092;43.582;19.528;2022-09-20T19:51:06;11.40;79.10
73360;DHT22;63092;43.582;19.528;2022-09-20T19:53:34;11.20;80.50
73360;DHT22;63092;43.582;19.528;2022-09-20T19:56:07;11.20;80.60
73360;DHT22;63092;43.582;19.528;2022-09-20T19:58:39;11.10;81.20
73360;DHT22;63092;43.582;19.528;2022-09-20T20:01:08;11.10;81.80
73360;DHT22;63092;43.582;19.528;2022-09-20T20:03:34;11.00;81.80
73360;DHT22;63092;43.582;19.528;2022-09-20T20:06:11;11.00;81.70
73360;DHT22;63092;43.582;19.528;2022-09-20T20:09:04;11.10;81.50
73360;DHT22;63092;43.582;19.528;2022-09-20T20:17:18;11.20;79.70
73360;DHT22;63092;43.582;19.528;2022-09-20T20:20:03;11.20;79.90
73360;DHT22;63092;43.582;19.528;2022-09-20T20:28:02;11.20;79.90
73360;DHT22;63092;43.582;19.528;2022-09-20T20:30:28;11.20;80.10
73360;DHT22;63092;43.582;19.528;2022-09-20T20:32:55;11.20;80.60
73360;DHT22;63092;43.582;19.528;2022-09-20T20:35:24;11.10;80.60
73360;DHT22;63092;43.582;19.528;2022-09-20T20:37:52;11.10;81.50
73360;DHT22;63092;43.582;19.528;2022-09-20T20:40:18;10.90;81.90
73360;DHT22;63092;43.582;19.528;2022-09-20T20:42:44;11.00;81.50
73360;DHT22;63092;43.582;19.528;2022-09-20T20:45:11;11.00;81.80
73360;DHT22;63092;43.582;19.528;2022-09-20T20:47:37;10.90;82.30
73360;DHT22;63092;43.582;19.528;2022-09-20T20:50:04;10.90;82.00
73360;DHT22;63092;43.582;19.528;2022-09-20T20:52:30;10.90;81.40
73360;DHT22;63092;43.582;19.528;2022-09-20T20:54:56;10.80;81.60
73360;DHT22;63092;43.582;19.528;2022-09-20T20:57:24;10.70;81.90
73360;DHT22;63092;43.582;19.528;2022-09-20T20:59:50;10.80;81.80
73360;DHT22;63092;43.582;19.528;2022-09-20T21:02:16;10.80;82.10
73360;DHT22;63092;43.582;19.528;2022-09-20T21:04:42;10.80;82.00
73360;DHT22;63092;43.582;19.528;2022-09-20T21:07:08;10.80;81.70
73360;DHT22;63092;43.582;19.528;2022-09-20T21:09:35;10.80;81.50
73360;DHT22;63092;43.582;19.528;2022-09-20T21:12:01;10.90;81.30
73360;DHT22;63092;43.582;19.528;2022-09-20T21:14:27;10.80;81.50
73360;DHT22;63092;43.582;19.528;2022-09-20T21:16:53;10.90;81.50
73360;DHT22;63092;43.582;19.528;2022-09-20T21:19:19;10.60;82.20